Time;durP1;ratioP1;P1;durP2;ratioP2;P2;SDS_P1;SDS_P2;PMS_P1;PMS_P2;Temp;Humidity;BMP_temperature;BMP_pressure;BME280_temperature;BME280_humidity;BME280_pressure;Samples;Min_cycle;Max_cycle;Signal;HPM_P1;HPM_P2
2022/12/12 00:00:12;;;;;;;5.78;4.30;;;;;;;20.46;50.61;99135.25;20728891;28;20871;-81
2022/12/12 00:10:13;;;;;;;6.43;4.10;;;;;;;20.47;50.77;99133.47;20734502;28;20043;-82
2022/12/12 00:20:14;;;;;;;6.13;4.22;;;;;;;20.45;50.68;99159.88;20724948;28;20052;-82
2022/12/12 00:30:14;;;;;;;8.43;3.80;;;;;;;20.44;50.40;99155.59;20722097;28;20042;-80
2022/12/12 00:40:15;;;;;;;5.75;3.55;;;;;;;20.44;50.21;99178.44;20744726;28;20080;-79
2022/12/12 00:50:15;;;;;;;3.58;3.22;;;;;;;20.44;50.16;99195.03;20733962;28;20083;-79
2022/12/12 01:00:16;;;;;;;4.68;3.33;;;;;;;20.42;50.37;99189.09;20743661;28;20065;-80
2022/12/12 01:10:17;;;;;;;5.40;3.78;;;;;;;20.43;50.23;99179.41;20748017;28;20417;-81
2022/12/12 01:20:23;;;;;;;4.10;3.28;;;;;;;20.43;50.24;99179.41;20742673;28;20884;-81
2022/12/12 01:30:24;;;;;;;3.95;3.45;;;;;;;20.43;49.90;99174.16;20743188;28;20046;-80
2022/12/12 01:40:28;;;;;;;4.65;3.28;;;;;;;20.43;50.05;99168.88;20738487;28;20073;-80
2022/12/12 01:50:28;;;;;;;3.72;2.90;;;;;;;20.40;49.93;99159.50;20736167;28;20084;-80
2022/12/12 02:00:28;;;;;;;4.10;3.10;;;;;;;20.39;49.74;99152.56;20741357;28;20033;-80
2022/12/12 02:10:29;;;;;;;3.13;2.83;;;;;;;20.39;49.69;99164.91;20735785;28;20048;-81
2022/12/12 02:20:42;;;;;;;3.40;2.90;;;;;;;20.37;49.79;99179.97;20742210;28;20069;-80
2022/12/12 02:31:06;;;;;;;4.10;3.20;;;;;;;20.37;49.84;99169.47;20729539;28;20302;-80
2022/12/12 02:41:15;;;;;;;3.30;2.75;;;;;;;20.34;49.50;99167.94;20736451;28;20144;-81
2022/12/12 02:51:17;;;;;;;3.55;3.05;;;;;;;20.34;49.44;99175.84;20740744;28;20064;-80
2022/12/12 03:01:24;;;;;;;3.72;2.95;;;;;;;20.35;49.49;99187.16;20730860;28;20202;-81
2022/12/12 03:11:46;;;;;;;3.20;2.70;;;;;;;20.35;49.37;99195.06;20731179;28;20065;-82
2022/12/12 03:21:59;;;;;;;2.83;2.50;;;;;;;20.34;49.78;99207.38;20732219;28;20381;-79
2022/12/12 03:32:07;;;;;;;3.43;2.77;;;;;;;20.34;49.23;99198.69;20731879;28;20085;-80
2022/12/12 03:42:20;;;;;;;3.00;2.65;;;;;;;20.32;49.48;99193.53;20734228;28;20769;-79
2022/12/12 03:52:55;;;;;;;3.40;2.60;;;;;;;20.34;49.42;99235.50;20718423;28;20053;-82
2022/12/12 04:03:16;;;;;;;3.33;2.70;;;;;;;20.34;49.31;99243.38;20653523;28;20045;-81
2022/12/12 04:13:29;;;;;;;2.42;2.22;;;;;;;20.30;49.07;99262.03;20743160;28;20042;-81
2022/12/12 04:23:48;;;;;;;2.60;2.40;;;;;;;20.30;49.18;99282.25;20762455;28;20042;-81
2022/12/12 04:33:53;;;;;;;2.85;2.47;;;;;;;20.30;48.80;99292.78;20745586;28;20518;-80
2022/12/12 04:43:56;;;;;;;3.47;2.20;;;;;;;20.28;49.56;99305.22;20749399;28;20054;-81
2022/12/12 04:54:08;;;;;;;2.90;2.43;;;;;;;20.29;49.05;99302.44;20767921;28;20049;-80
2022/12/12 05:04:17;;;;;;;3.10;2.40;;;;;;;20.33;49.01;99304.81;20750407;28;20107;-82
2022/12/12 05:14:18;;;;;;;2.47;2.13;;;;;;;20.41;48.75;99316.28;20756744;28;20049;-82
2022/12/12 05:24:19;;;;;;;4.63;2.40;;;;;;;20.53;49.41;99313.50;20757317;28;20041;-81
2022/12/12 05:34:19;;;;;;;11.10;3.25;;;;;;;20.61;50.22;99318.88;20743546;28;20065;-85
2022/12/12 05:44:21;;;;;;;7.65;3.25;;;;;;;20.69;49.87;99319.00;20734112;28;20049;-81
2022/12/12 05:54:21;;;;;;;12.73;3.58;;;;;;;20.76;49.58;99333.28;20754260;28;20048;-82
2022/12/12 06:04:25;;;;;;;20.27;4.53;;;;;;;20.71;48.16;99342.53;20759184;28;20035;-80
2022/12/12 06:14:25;;;;;;;17.17;4.32;;;;;;;20.78;48.03;99336.59;20747849;28;20048;-76
2022/12/12 06:24:32;;;;;;;12.93;4.85;;;;;;;20.68;42.99;99350.69;20734057;28;20412;-76
2022/12/12 06:34:32;;;;;;;17.35;4.20;;;;;;;20.76;45.61;99353.50;20744261;28;20054;-76
2022/12/12 06:44:33;;;;;;;10.23;3.60;;;;;;;20.83;47.01;99369.56;20735530;28;20099;-76
2022/12/12 06:54:35;;;;;;;9.52;4.20;;;;;;;20.82;45.22;99379.22;20732019;28;20038;-77
2022/12/12 07:04:35;;;;;;;7.17;3.43;;;;;;;20.90;45.84;99391.72;20758532;28;20728;-76
2022/12/12 07:14:37;;;;;;;6.68;3.15;;;;;;;20.99;46.56;99395.28;20721165;28;20034;-78
2022/12/12 07:24:38;;;;;;;5.40;3.03;;;;;;;21.05;46.45;99397.34;20737485;28;20088;-77
2022/12/12 07:34:38;;;;;;;7.18;2.80;;;;;;;21.05;45.64;99411.31;20745701;28;20041;-77
2022/12/12 07:44:39;;;;;;;7.57;3.22;;;;;;;21.18;47.09;99420.72;20756238;28;20072;-77
2022/12/12 07:54:39;;;;;;;6.55;3.40;;;;;;;21.20;46.05;99434.56;20754253;28;20049;-76
2022/12/12 08:04:39;;;;;;;9.05;4.40;;;;;;;21.23;45.89;99440.38;20738185;28;20038;-78
2022/12/12 08:14:40;;;;;;;11.48;5.82;;;;;;;20.88;41.86;99449.72;20730864;28;20044;-79
2022/12/12 08:24:41;;;;;;;9.35;5.03;;;;;;;20.97;42.75;99444.59;20729599;28;20042;-76
2022/12/12 08:34:41;;;;;;;11.63;5.55;;;;;;;21.10;44.20;99450.38;20740459;28;20081;-78
2022/12/12 08:44:43;;;;;;;12.45;7.47;;;;;;;21.15;43.42;99455.25;20742430;28;20049;-78
2022/12/12 08:54:43;;;;;;;10.80;6.45;;;;;;;20.76;41.35;99464.84;20747873;28;20568;-78
2022/12/12 09:04:44;;;;;;;12.85;6.07;;;;;;;21.04;41.88;99464.13;20785837;28;20100;-77
2022/12/12 09:14:45;;;;;;;16.90;8.95;;;;;;;21.22;42.72;99466.88;20783893;28;20045;-78
2022/12/12 09:24:45;;;;;;;19.58;13.63;;;;;;;21.30;42.49;99467.00;20778979;28;20045;-77
2022/12/12 09:34:47;;;;;;;18.85;12.90;;;;;;;21.33;43.08;99469.31;20780962;28;20049;-77
2022/12/12 09:44:49;;;;;;;24.30;17.48;;;;;;;21.42;42.72;99476.38;20763244;28;20045;-77
2022/12/12 09:54:49;;;;;;;32.85;21.35;;;;;;;21.44;43.08;99474.41;20783164;28;20052;-77
2022/12/12 10:05:13;;;;;;;22.17;16.17;;;;;;;21.51;43.01;99479.97;20777487;28;20049;-76
2022/12/12 10:15:39;;;;;;;17.95;12.55;;;;;;;21.44;42.27;99489.41;20748427;28;20046;-77
2022/12/12 10:25:55;;;;;;;18.15;12.88;;;;;;;21.44;43.70;99489.41;20755802;28;20580;-76
2022/12/12 10:36:21;;;;;;;21.85;13.57;;;;;;;21.56;43.70;99497.97;20742893;28;20076;-78
2022/12/12 10:47:01;;;;;;;21.35;14.02;;;;;;;21.61;43.41;99494.94;20737285;28;20041;-78
2022/12/12 10:57:13;;;;;;;22.50;16.15;;;;;;;21.62;43.13;99488.69;20753942;28;20456;-78
2022/12/12 11:07:19;;;;;;;22.53;14.93;;;;;;;21.66;42.98;99500.63;20734243;28;20045;-78
2022/12/12 11:17:21;;;;;;;12.23;8.48;;;;;;;20.95;34.96;99500.00;20728903;28;20033;-79
2022/12/12 11:27:29;;;;;;;16.67;9.27;;;;;;;21.12;37.98;99511.63;20765188;28;20126;-80
2022/12/12 11:37:45;;;;;;;14.35;8.95;;;;;;;21.16;39.42;99520.91;20773714;28;20060;-81
2022/12/12 11:47:46;;;;;;;12.57;9.18;;;;;;;21.35;40.55;99524.47;20774822;28;20053;-82
2022/12/12 11:58:06;;;;;;;13.90;9.65;;;;;;;21.53;41.20;99511.41;20775766;28;20045;-79
2022/12/12 12:08:25;;;;;;;28.25;11.30;;;;;;;21.65;40.95;99523.47;20766193;28;20107;-78
2022/12/12 12:18:41;;;;;;;21.30;10.88;;;;;;;21.79;42.19;99516.94;20765222;28;20049;-80
2022/12/12 12:29:13;;;;;;;15.73;10.48;;;;;;;21.83;46.23;99525.38;20777544;28;20049;-80
2022/12/12 12:39:30;;;;;;;14.80;9.93;;;;;;;21.83;46.58;99520.13;20783550;28;20452;-80
2022/12/12 12:49:41;;;;;;;15.38;9.75;;;;;;;21.79;46.08;99537.16;20782339;28;20037;-80
2022/12/12 12:59:46;;;;;;;12.35;8.68;;;;;;;21.81;45.55;99533.41;20786079;28;20045;-78
2022/12/12 13:10:05;;;;;;;11.75;8.50;;;;;;;21.78;45.01;99548.72;20766467;28;20042;-79
2022/12/12 13:20:14;;;;;;;13.48;8.05;;;;;;;21.73;44.83;99551.75;20758351;28;20045;-79
2022/12/12 13:30:23;;;;;;;13.20;7.82;;;;;;;21.66;45.05;99548.84;20772490;28;20052;-80
2022/12/12 13:40:29;;;;;;;13.13;7.30;;;;;;;21.66;44.64;99571.75;20764243;28;20049;-79
2022/12/12 13:50:29;;;;;;;8.48;6.93;;;;;;;21.70;44.67;99567.84;20759373;28;20595;-78
2022/12/12 14:00:32;;;;;;;15.02;7.40;;;;;;;21.74;45.21;99583.22;20779960;28;20088;-76
2022/12/12 14:10:40;;;;;;;34.42;7.90;;;;;;;21.74;45.17;99585.06;20770280;28;20072;-79
2022/12/12 14:20:43;;;;;;;12.35;7.57;;;;;;;21.79;45.29;99587.22;20767894;28;20387;-79
2022/12/12 14:30:57;;;;;;;13.00;7.47;;;;;;;21.79;45.58;99585.44;20774302;28;20095;-78
2022/12/12 14:41:03;;;;;;;12.43;7.93;;;;;;;21.81;46.07;99593.22;20760817;28;20606;-79
2022/12/12 14:51:08;;;;;;;18.00;7.68;;;;;;;21.80;46.54;99604.72;20767916;28;20053;-81
2022/12/12 15:01:08;;;;;;;9.43;6.45;;;;;;;;;;20743109;28;20423;-79
2022/12/12 15:11:14;;;;;;;11.60;6.43;;;;;;;21.72;46.47;99615.97;20735184;28;20084;-82
2022/12/12 15:21:15;;;;;;;11.80;5.95;;;;;;;21.67;46.53;99623.47;20755760;28;20426;-81
2022/12/12 15:31:18;;;;;;;16.17;6.38;;;;;;;21.64;47.05;99634.28;20750148;28;20038;-82
2022/12/12 15:41:19;;;;;;;12.93;5.80;;;;;;;21.62;47.23;99639.69;20791350;28;20042;-83
2022/12/12 15:51:20;;;;;;;12.10;5.78;;;;;;;21.61;47.70;99651.19;20764927;28;20053;-81
2022/12/12 16:01:28;;;;;;;12.15;5.63;;;;;;;21.62;48.47;99644.97;20778296;28;20381;-85
2022/12/12 16:11:30;;;;;;;10.38;6.10;;;;;;;21.60;48.29;99652.16;20788163;28;20041;-85
2022/12/12 16:21:32;;;;;;;8.70;5.60;;;;;;;20.67;36.71;99667.34;20771501;28;20042;-84
2022/12/12 16:31:32;;;;;;;8.48;5.35;;;;;;;21.15;45.41;99673.75;20758079;28;20042;-85
2022/12/12 16:41:33;;;;;;;9.35;5.28;;;;;;;21.21;46.86;99676.63;20766490;28;20046;-84
2022/12/12 16:51:34;;;;;;;8.35;4.97;;;;;;;21.26;47.38;99679.72;20746599;28;20386;-75
2022/12/12 17:01:35;;;;;;;6.90;4.50;;;;;;;21.26;47.66;99679.72;20745481;28;20065;-75
2022/12/12 17:11:36;;;;;;;4.50;3.70;;;;;;;21.24;47.41;99686.91;20733790;28;20168;-75
2022/12/12 17:21:37;;;;;;;6.15;4.07;;;;;;;21.23;47.54;99684.44;20725905;28;20041;-74
2022/12/12 17:31:38;;;;;;;7.03;4.10;;;;;;;21.23;47.85;99689.69;20737019;28;20133;-74
2022/12/12 17:41:39;;;;;;;14.23;3.90;;;;;;;21.17;47.75;99696.31;20728405;28;20038;-78
2022/12/12 17:51:39;;;;;;;13.27;5.85;;;;;;;21.15;47.24;99713.22;20732977;28;20046;-76
2022/12/12 18:01:40;;;;;;;20.42;13.15;;;;;;;21.16;48.09;99731.50;20729350;28;20072;-76
2022/12/12 18:11:42;;;;;;;24.80;14.57;;;;;;;21.15;47.75;99731.66;20730280;28;20034;-78
2022/12/12 18:21:43;;;;;;;27.00;14.10;;;;;;;21.17;48.75;99737.63;20736677;28;20037;-77
2022/12/12 18:31:44;;;;;;;26.13;12.20;;;;;;;21.18;49.34;99728.72;20732299;28;20045;-77
2022/12/12 18:41:45;;;;;;;23.35;12.13;;;;;;;21.14;49.23;99744.00;20723525;28;20057;-85
2022/12/12 18:51:46;;;;;;;18.75;10.52;;;;;;;21.15;49.63;99747.44;20760082;28;20052;-84
2022/12/12 19:01:50;;;;;;;18.80;10.63;;;;;;;21.10;49.42;99753.97;20759483;28;20430;-84
2022/12/12 19:11:54;;;;;;;15.88;8.82;;;;;;;21.08;49.43;99763.78;20749291;28;20115;-87
2022/12/12 19:21:55;;;;;;;17.80;9.10;;;;;;;21.07;49.25;99764.75;20745081;28;20037;-84
2022/12/12 19:31:55;;;;;;;13.95;8.18;;;;;;;21.01;48.64;99774.97;20706784;28;20057;-80
2022/12/12 19:41:56;;;;;;;29.58;9.70;;;;;;;21.00;49.44;99791.75;20722956;28;20450;-77
2022/12/12 19:51:57;;;;;;;14.48;8.20;;;;;;;20.95;49.37;99797.41;20727819;28;20925;-79
2022/12/12 20:01:59;;;;;;;13.48;7.78;;;;;;;20.88;49.19;99807.59;20736506;28;20076;-78
2022/12/12 20:11:59;;;;;;;11.00;6.55;;;;;;;20.90;49.08;99812.75;20735846;28;20045;-84
2022/12/12 20:22:00;;;;;;;9.77;6.10;;;;;;;20.87;48.45;99827.00;20753722;28;20091;-85
2022/12/12 20:32:01;;;;;;;9.85;5.63;;;;;;;20.76;47.62;99827.06;20730635;28;22802;-79
2022/12/12 20:42:02;;;;;;;12.20;5.88;;;;;;;20.77;47.77;99828.72;20731411;28;20302;-79
2022/12/12 20:52:02;;;;;;;8.13;4.93;;;;;;;20.76;47.73;99827.06;20737518;28;20450;-77
2022/12/12 21:02:04;;;;;;;7.43;4.78;;;;;;;20.72;48.08;99829.13;20740208;28;20041;-78
2022/12/12 21:12:05;;;;;;;7.65;4.70;;;;;;;20.73;47.96;99835.22;20743464;28;20133;-77
2022/12/12 21:22:07;;;;;;;5.82;4.30;;;;;;;20.70;48.28;99849.44;20746346;28;20038;-78
2022/12/12 21:32:08;;;;;;;5.75;4.03;;;;;;;20.64;48.14;99852.56;20757474;28;20042;-78
2022/12/12 21:42:09;;;;;;;6.43;4.32;;;;;;;20.63;48.61;99869.34;20738923;28;20493;-78
2022/12/12 21:52:12;;;;;;;6.38;3.90;;;;;;;20.59;48.88;99875.78;20734689;28;20041;-78
2022/12/12 22:02:13;;;;;;;5.00;3.60;;;;;;;20.56;49.20;99868.19;20740767;28;20121;-79
2022/12/12 22:12:13;;;;;;;6.78;3.72;;;;;;;20.55;49.34;99861.25;20752380;28;20100;-78
2022/12/12 22:22:15;;;;;;;4.68;3.33;;;;;;;20.54;49.10;99865.66;20735899;28;20072;-77
2022/12/12 22:32:15;;;;;;;4.95;3.40;;;;;;;20.52;49.45;99866.75;20736607;28;20046;-78
2022/12/12 22:42:16;;;;;;;4.97;3.47;;;;;;;20.46;49.51;99868.09;20735692;28;20439;-78
2022/12/12 22:52:16;;;;;;;5.25;3.30;;;;;;;20.44;49.47;99867.38;20742256;28;20412;-78
2022/12/12 23:02:16;;;;;;;6.95;3.20;;;;;;;20.44;49.65;99876.09;20723409;28;20041;-78
2022/12/12 23:12:21;;;;;;;5.03;3.00;;;;;;;20.44;49.76;99870.84;20740648;28;20050;-78
2022/12/12 23:22:22;;;;;;;4.60;3.15;;;;;;;20.42;49.73;99895.59;20727611;28;20060;-79
2022/12/12 23:32:22;;;;;;;3.67;3.00;;;;;;;20.40;49.81;99908.06;20730481;28;20041;-79
2022/12/12 23:42:22;;;;;;;4.18;3.10;;;;;;;20.40;49.82;99911.50;20736418;28;20045;-79
2022/12/12 23:52:23;;;;;;;3.95;2.75;;;;;;;20.38;49.69;99918.69;20741756;28;20084;-79
